createdAt,value
2024-01-29T00:00:06.353Z,102633.78
2024-01-29T00:01:15.563Z,102626.91
2024-01-29T00:02:21.988Z,102632.94
2024-01-29T00:03:26.212Z,102627.75
2024-01-29T00:04:32.890Z,102628.59
2024-01-29T00:05:36.689Z,102633.81
2024-01-29T00:06:42.682Z,102627.75
2024-01-29T00:07:46.666Z,102633.81
2024-01-29T00:08:56.188Z,102628.63
2024-01-29T00:10:00.408Z,102626.06
2024-01-29T00:11:10.536Z,102633.81
2024-01-29T00:12:14.538Z,102631.22
2024-01-29T00:13:23.680Z,102631.25
2024-01-29T00:14:30.015Z,102627.81
2024-01-29T00:15:40.309Z,102626.06
2024-01-29T00:16:45.144Z,102632.13
2024-01-29T00:17:51.513Z,102623.47
2024-01-29T00:18:55.634Z,102626.94
2024-01-29T00:19:59.620Z,102630.41
2024-01-29T00:21:06.467Z,102633.81
2024-01-29T00:22:10.477Z,102625.16
2024-01-29T00:23:17.387Z,102623.41
2024-01-29T00:24:21.307Z,102616.50
2024-01-29T00:25:30.329Z,102622.47
2024-01-29T00:26:34.474Z,102623.31
2024-01-29T00:27:44.417Z,102616.38
2024-01-29T00:28:53.244Z,102621.56
2024-01-29T00:30:01.024Z,102618.13
2024-01-29T00:31:06.144Z,102625.06
2024-01-29T00:32:12.178Z,102619.94
2024-01-29T00:33:16.282Z,102622.47
2024-01-29T00:34:23.446Z,102625.94
2024-01-29T00:35:28.035Z,102627.53
2024-01-29T00:36:34.478Z,102631.00
2024-01-29T00:37:38.437Z,102619.81
2024-01-29T00:38:42.357Z,102618.09
2024-01-29T00:39:51.290Z,102612.94
2024-01-29T00:40:55.292Z,102614.66
2024-01-29T00:42:02.183Z,102609.47
2024-01-29T00:43:06.450Z,102615.47
2024-01-29T00:44:15.660Z,102613.75
2024-01-29T00:45:22.132Z,102610.34
2024-01-29T00:46:28.678Z,102606.03
2024-01-29T00:47:32.692Z,102604.31
2024-01-29T00:48:40.098Z,102606.94
2024-01-29T00:49:46.283Z,102602.50
2024-01-29T00:50:56.887Z,102599.06
2024-01-29T00:52:01.033Z,102603.34
2024-01-29T00:53:07.900Z,102605.97
2024-01-29T00:54:11.853Z,102603.38
2024-01-29T00:55:16.125Z,102598.19
2024-01-29T00:56:24.917Z,102593.84
2024-01-29T00:57:31.123Z,102606.78
2024-01-29T00:58:37.974Z,102596.44
2024-01-29T00:59:44.688Z,102600.69
2024-01-29T01:00:52.396Z,102592.06
2024-01-29T01:01:56.531Z,102594.63
2024-01-29T01:03:03.115Z,102594.63
2024-01-29T01:04:09.570Z,102603.22
2024-01-29T01:05:18.831Z,102602.34
2024-01-29T01:06:27.009Z,102600.66
2024-01-29T01:07:35.901Z,102598.97
2024-01-29T01:08:39.846Z,102601.59
2024-01-29T01:09:43.909Z,102599.91
2024-01-29T01:10:53.192Z,102598.16
2024-01-29T01:11:57.344Z,102593.81
2024-01-29T01:13:06.662Z,102596.44
2024-01-29T01:14:12.817Z,102596.44
2024-01-29T01:15:22.334Z,102598.16
2024-01-29T01:16:26.355Z,102595.56
2024-01-29T01:17:38.170Z,102595.59
2024-01-29T01:18:42.776Z,102595.53
2024-01-29T01:19:52.942Z,102598.97
2024-01-29T01:20:57.847Z,102593.84
2024-01-29T01:22:04.942Z,102591.25
2024-01-29T01:23:08.887Z,102598.13
2024-01-29T01:24:15.775Z,102591.19
2024-01-29T01:25:22.181Z,102593.72
2024-01-29T01:26:28.945Z,102595.47
2024-01-29T01:27:32.987Z,102595.47
2024-01-29T01:28:42.007Z,102596.31
2024-01-29T01:29:48.710Z,102597.09
2024-01-29T01:31:02.272Z,102596.25
2024-01-29T01:32:07.458Z,102598.84
2024-01-29T01:33:14.284Z,102592.81
2024-01-29T01:34:20.708Z,102590.25
2024-01-29T01:35:30.287Z,102595.41
2024-01-29T01:36:34.455Z,102597.91
2024-01-29T01:37:41.181Z,102598.72
2024-01-29T01:38:48.771Z,102597.03
2024-01-29T01:39:58.409Z,102605.63
2024-01-29T01:41:02.412Z,102601.25
2024-01-29T01:42:06.965Z,102601.19
2024-01-29T01:43:25.349Z,102604.59
2024-01-29T01:44:30.072Z,102606.28
2024-01-29T01:45:44.795Z,102608.03
2024-01-29T01:46:53.363Z,102596.00
2024-01-29T01:48:02.416Z,102602.06
2024-01-29T01:49:10.369Z,102594.31
2024-01-29T01:50:17.052Z,102600.38
2024-01-29T01:51:24.875Z,102602.94
2024-01-29T01:52:33.257Z,102598.59
2024-01-29T01:53:39.988Z,102596.00
2024-01-29T01:54:50.131Z,102597.75
2024-01-29T01:55:54.734Z,102588.31
2024-01-29T01:57:04.792Z,102590.88
2024-01-29T01:58:13.159Z,102590.81
2024-01-29T01:59:24.680Z,102596.06
2024-01-29T02:00:36.649Z,102583.09
2024-01-29T02:01:46.324Z,102583.97
2024-01-29T02:02:55.662Z,102590.03
2024-01-29T02:04:02.458Z,102586.56
2024-01-29T02:05:09.329Z,102584.88
2024-01-29T02:06:17.684Z,102583.13
2024-01-29T02:07:28.446Z,102584.03
2024-01-29T02:08:34.981Z,102578.03
2024-01-29T02:09:39.258Z,102577.13
2024-01-29T02:10:48.077Z,102578.81
2024-01-29T02:11:55.181Z,102570.22
2024-01-29T02:13:02.007Z,102574.53
2024-01-29T02:14:06.533Z,102569.41
2024-01-29T02:15:20.025Z,102576.28
2024-01-29T02:16:24.959Z,102568.53
2024-01-29T02:17:32.286Z,102565.13
2024-01-29T02:18:38.754Z,102566.84
2024-01-29T02:19:43.086Z,102562.53
2024-01-29T02:20:51.352Z,102562.53
2024-01-29T02:21:56.303Z,102559.88
2024-01-29T02:23:09.110Z,102559.03
2024-01-29T02:24:16.123Z,102558.19
2024-01-29T02:25:25.678Z,102553.03
2024-01-29T02:26:31.612Z,102552.19
2024-01-29T02:27:38.197Z,102550.47
2024-01-29T02:28:44.322Z,102547.00
2024-01-29T02:29:54.683Z,102544.41
2024-01-29T02:30:59.945Z,102543.56
2024-01-29T02:32:10.458Z,102541.84
2024-01-29T02:33:14.501Z,102535.78
2024-01-29T02:34:22.033Z,102543.53
2024-01-29T02:35:28.287Z,102545.22
2024-01-29T02:36:37.360Z,102551.28
2024-01-29T02:37:43.993Z,102547.78
2024-01-29T02:38:54.050Z,102547.78
2024-01-29T02:39:58.141Z,102542.63
2024-01-29T02:41:04.627Z,102545.22
2024-01-29T02:42:08.265Z,102549.59
2024-01-29T02:43:12.378Z,102541.84
2024-01-29T02:44:22.560Z,102541.88
2024-01-29T02:45:28.665Z,102542.72
2024-01-29T02:46:35.200Z,102539.25
2024-01-29T02:47:39.313Z,102542.72
2024-01-29T02:48:45.059Z,102550.47
2024-01-29T02:49:49.205Z,102545.28
2024-01-29T02:50:58.097Z,102545.31
2024-01-29T02:52:05.863Z,102542.75
2024-01-29T02:53:12.666Z,102548.81
2024-01-29T02:54:22.930Z,102547.06
2024-01-29T02:55:31.975Z,102545.38
2024-01-29T02:56:35.836Z,102552.25
2024-01-29T02:57:43.369Z,102541.06
2024-01-29T02:58:49.442Z,102541.84
2024-01-29T02:59:58.217Z,102543.59
2024-01-29T03:01:02.256Z,102541.00
2024-01-29T03:02:08.406Z,102537.56
2024-01-29T03:03:15.225Z,102542.72
2024-01-29T03:04:25.729Z,102539.25
2024-01-29T03:05:32.551Z,102541.84
2024-01-29T03:06:36.545Z,102534.97
2024-01-29T03:07:45.492Z,102533.25
2024-01-29T03:08:49.413Z,102532.38
2024-01-29T03:09:58.130Z,102536.66
2024-01-29T03:11:02.179Z,102532.31
2024-01-29T03:12:09.932Z,102532.38
2024-01-29T03:13:14.103Z,102533.28
2024-01-29T03:14:23.005Z,102532.44
2024-01-29T03:15:26.980Z,102537.59
2024-01-29T03:16:33.508Z,102528.13
2024-01-29T03:17:37.527Z,102525.59
2024-01-29T03:18:44.194Z,102526.47
2024-01-29T03:19:48.294Z,102527.31
2024-01-29T03:20:56.159Z,102526.50
2024-01-29T03:22:03.338Z,102522.16
2024-01-29T03:23:11.326Z,102526.47
2024-01-29T03:24:16.656Z,102520.44
2024-01-29T03:25:25.784Z,102528.16
2024-01-29T03:26:30.175Z,102528.13
2024-01-29T03:27:39.718Z,102528.13
2024-01-29T03:28:43.644Z,102535.03
2024-01-29T03:29:50.289Z,102522.16
2024-01-29T03:30:54.448Z,102525.59
2024-01-29T03:32:01.024Z,102528.22
2024-01-29T03:33:07.512Z,102525.66
2024-01-29T03:34:14.287Z,102524.75
2024-01-29T03:35:18.952Z,102531.53
2024-01-29T03:36:27.735Z,102518.63
2024-01-29T03:37:33.856Z,102522.97
2024-01-29T03:38:40.461Z,102523.00
2024-01-29T03:39:44.487Z,102520.41
2024-01-29T03:40:53.750Z,102514.41
2024-01-29T03:41:57.937Z,102515.25
2024-01-29T03:43:04.568Z,102515.28
2024-01-29T03:44:08.605Z,102525.59
2024-01-29T03:45:15.233Z,102515.28
2024-01-29T03:46:19.251Z,102525.63
2024-01-29T03:47:25.941Z,102516.16
2024-01-29T03:48:30.321Z,102525.66
2024-01-29T03:49:34.490Z,102520.50
2024-01-29T03:50:41.107Z,102521.38
2024-01-29T03:51:44.854Z,102520.47
2024-01-29T03:52:49.329Z,102515.28
2024-01-29T03:53:58.123Z,102521.31
2024-01-29T03:55:06.763Z,102523.91
2024-01-29T03:56:16.615Z,102516.16
2024-01-29T03:57:20.691Z,102526.53
2024-01-29T03:58:29.625Z,102523.09
2024-01-29T03:59:36.126Z,102520.47
2024-01-29T04:00:43.016Z,102517.00
2024-01-29T04:01:47.362Z,102511.81
2024-01-29T04:02:56.425Z,102515.28
2024-01-29T04:04:00.513Z,102511.00
2024-01-29T04:05:08.489Z,102515.34
2024-01-29T04:06:15.810Z,102513.63
2024-01-29T04:07:22.874Z,102512.75
2024-01-29T04:08:27.063Z,102512.75
2024-01-29T04:09:35.043Z,102512.75
2024-01-29T04:10:39.170Z,102511.06
2024-01-29T04:11:52.349Z,102509.38
2024-01-29T04:12:56.526Z,102513.66
2024-01-29T04:14:05.839Z,102509.38
2024-01-29T04:15:10.459Z,102505.91
2024-01-29T04:16:19.497Z,102507.63
2024-01-29T04:17:26.136Z,102507.63
2024-01-29T04:18:32.913Z,102506.78
2024-01-29T04:19:37.016Z,102509.38
2024-01-29T04:20:46.069Z,102511.06
2024-01-29T04:21:50.215Z,102510.22
2024-01-29T04:22:56.901Z,102509.28
2024-01-29T04:24:03.865Z,102510.16
2024-01-29T04:25:11.618Z,102504.16
2024-01-29T04:26:18.282Z,102505.00
2024-01-29T04:27:27.721Z,102505.84
2024-01-29T04:28:31.714Z,102510.06
2024-01-29T04:29:37.794Z,102507.44
2024-01-29T04:30:42.157Z,102503.94
2024-01-29T04:31:48.730Z,102509.16
2024-01-29T04:32:52.713Z,102506.53
2024-01-29T04:33:59.435Z,102504.00
2024-01-29T04:35:08.230Z,102496.19
2024-01-29T04:36:18.552Z,102493.50
2024-01-29T04:37:22.536Z,102499.56
2024-01-29T04:38:29.275Z,102500.47
2024-01-29T04:39:38.400Z,102490.97
2024-01-29T04:40:48.015Z,102487.50
2024-01-29T04:41:53.637Z,102487.47
2024-01-29T04:43:02.834Z,102487.50
2024-01-29T04:44:06.951Z,102478.84
2024-01-29T04:45:14.056Z,102481.47
2024-01-29T04:46:18.345Z,102475.41
2024-01-29T04:47:24.926Z,102480.56
2024-01-29T04:48:31.197Z,102478.84
2024-01-29T04:49:37.988Z,102479.69
2024-01-29T04:50:41.942Z,102477.09
2024-01-29T04:51:48.625Z,102491.72
2024-01-29T04:52:52.637Z,102488.28
2024-01-29T04:53:59.374Z,102485.69
2024-01-29T04:55:07.397Z,102481.38
2024-01-29T04:56:14.337Z,102489.06
2024-01-29T04:57:18.783Z,102489.06
2024-01-29T04:58:30.637Z,102485.63
2024-01-29T04:59:37.898Z,102491.69
2024-01-29T05:00:47.091Z,102486.53
2024-01-29T05:01:54.125Z,102493.41
2024-01-29T05:03:00.846Z,102486.47
2024-01-29T05:04:05.945Z,102485.59
2024-01-29T05:05:12.921Z,102481.19
2024-01-29T05:06:17.052Z,102484.63
2024-01-29T05:07:25.816Z,102484.63
2024-01-29T05:08:29.822Z,102482.03
2024-01-29T05:09:38.970Z,102479.44
2024-01-29T05:10:43.200Z,102481.19
2024-01-29T05:11:49.757Z,102476.00
2024-01-29T05:12:56.067Z,102488.09
2024-01-29T05:14:06.181Z,102481.19
2024-01-29T05:15:13.212Z,102484.66
2024-01-29T05:16:19.982Z,102487.25
2024-01-29T05:17:24.099Z,102485.47
2024-01-29T05:18:32.925Z,102488.03
2024-01-29T05:19:36.957Z,102488.00
2024-01-29T05:20:43.493Z,102488.81
2024-01-29T05:21:51.765Z,102477.59
2024-01-29T05:22:58.883Z,102475.91
2024-01-29T05:24:03.099Z,102479.31
2024-01-29T05:25:07.990Z,102475.06
2024-01-29T05:26:15.061Z,102475.09
2024-01-29T05:27:21.670Z,102475.13
2024-01-29T05:28:28.305Z,102482.03
2024-01-29T05:29:37.280Z,102473.38
2024-01-29T05:30:43.963Z,102470.84
2024-01-29T05:31:48.024Z,102475.19
2024-01-29T05:32:55.037Z,102472.66
2024-01-29T05:33:59.079Z,102470.00
2024-01-29T05:35:10.932Z,102472.53
2024-01-29T05:36:15.676Z,102473.44
2024-01-29T05:37:22.284Z,102470.84
2024-01-29T05:38:28.868Z,102472.53
2024-01-29T05:39:35.546Z,102475.97
2024-01-29T05:40:39.732Z,102478.53
2024-01-29T05:41:46.347Z,102480.22
2024-01-29T05:42:54.545Z,102476.81
2024-01-29T05:44:01.454Z,102489.78
2024-01-29T05:45:09.490Z,102486.34
2024-01-29T05:46:16.167Z,102486.25
2024-01-29T05:47:20.374Z,102482.88
2024-01-29T05:48:30.199Z,102470.75
2024-01-29T05:49:36.671Z,102476.72
2024-01-29T05:50:43.529Z,102479.31
2024-01-29T05:51:49.867Z,102480.16
2024-01-29T05:53:24.776Z,102474.09
2024-01-29T05:54:31.011Z,102481.84
2024-01-29T05:55:37.667Z,102475.84
2024-01-29T05:56:49.495Z,102477.56
2024-01-29T05:57:57.634Z,102479.31
2024-01-29T05:59:04.773Z,102481.00
2024-01-29T06:00:16.291Z,102475.00
2024-01-29T06:01:23.541Z,102476.72
2024-01-29T06:02:30.438Z,102474.16
2024-01-29T06:03:34.472Z,102474.16
2024-01-29T06:04:43.159Z,102473.38
2024-01-29T06:05:49.695Z,102479.34
2024-01-29T06:06:59.060Z,102482.75
2024-01-29T06:08:07.080Z,102478.47
2024-01-29T06:09:16.758Z,102475.00
2024-01-29T06:10:21.482Z,102479.38
2024-01-29T06:11:28.280Z,102472.53
2024-01-29T06:12:34.868Z,102475.09
2024-01-29T06:13:43.138Z,102481.97
2024-01-29T06:14:47.069Z,102475.06
2024-01-29T06:15:59.619Z,102477.66
2024-01-29T06:17:03.651Z,102467.31
2024-01-29T06:18:10.672Z,102470.78
2024-01-29T06:19:17.227Z,102465.59
2024-01-29T06:20:26.362Z,102467.31
2024-01-29T06:21:30.367Z,102463.81
2024-01-29T06:22:39.835Z,102465.50
2024-01-29T06:23:43.902Z,102461.16
2024-01-29T06:24:50.545Z,102462.09
2024-01-29T06:25:55.149Z,102462.06
2024-01-29T06:27:01.650Z,102467.19
2024-01-29T06:28:08.806Z,102466.34
2024-01-29T06:29:27.222Z,102462.06
2024-01-29T06:30:34.834Z,102463.72
2024-01-29T06:31:45.776Z,102464.53
2024-01-29T06:32:49.973Z,102467.13
2024-01-29T06:33:58.971Z,102464.53
2024-01-29T06:35:05.813Z,102467.19
2024-01-29T06:36:18.669Z,102464.59
2024-01-29T06:37:22.726Z,102471.47
2024-01-29T06:38:29.329Z,102464.53
2024-01-29T06:39:33.866Z,102463.66
2024-01-29T06:40:43.063Z,102466.28
2024-01-29T06:41:47.185Z,102468.03
2024-01-29T06:42:53.935Z,102474.94
2024-01-29T06:43:57.934Z,102468.88
2024-01-29T06:45:05.977Z,102462.88
2024-01-29T06:46:29.281Z,102468.06
2024-01-29T06:47:40.446Z,102465.38
2024-01-29T06:48:44.788Z,102471.44
2024-01-29T06:49:51.442Z,102471.44
2024-01-29T06:50:55.525Z,102473.19
2024-01-29T06:51:59.910Z,102472.34
2024-01-29T06:53:06.804Z,102469.75
2024-01-29T06:54:10.910Z,102469.69
2024-01-29T06:55:21.765Z,102462.84
2024-01-29T06:56:25.764Z,102463.75
2024-01-29T06:57:32.279Z,102465.44
2024-01-29T06:58:38.044Z,102470.66
2024-01-29T06:59:44.527Z,102474.09
2024-01-29T07:00:47.869Z,102474.94
2024-01-29T07:02:01.718Z,102472.28
2024-01-29T07:03:09.075Z,102474.03
2024-01-29T07:04:15.566Z,102472.34
2024-01-29T07:05:20.523Z,102466.34
2024-01-29T07:06:27.114Z,102463.81
2024-01-29T07:07:30.416Z,102466.41
2024-01-29T07:08:36.888Z,102471.50
2024-01-29T07:09:41.634Z,102468.88
2024-01-29T07:10:49.489Z,102474.94
2024-01-29T07:11:53.439Z,102467.16
2024-01-29T07:13:02.285Z,102466.34
2024-01-29T07:14:06.162Z,102462.88
2024-01-29T07:15:16.894Z,102463.72
2024-01-29T07:16:20.737Z,102469.78
2024-01-29T07:17:27.197Z,102463.81
2024-01-29T07:18:37.605Z,102469.81
2024-01-29T07:19:44.340Z,102467.25
2024-01-29T07:20:48.723Z,102460.28
2024-01-29T07:21:55.478Z,102466.34
2024-01-29T07:23:01.566Z,102457.75
2024-01-29T07:24:08.902Z,102459.50
2024-01-29T07:25:13.021Z,102452.63
2024-01-29T07:26:21.776Z,102457.81
2024-01-29T07:27:25.771Z,102455.25
2024-01-29T07:28:32.881Z,102460.41
2024-01-29T07:29:37.345Z,102458.72
2024-01-29T07:30:43.905Z,102464.78
2024-01-29T07:31:54.331Z,102457.09
2024-01-29T07:33:04.204Z,102460.53
2024-01-29T07:34:13.287Z,102466.59
2024-01-29T07:35:20.331Z,102458.91
2024-01-29T07:36:27.389Z,102456.31
2024-01-29T07:37:36.946Z,102464.06
2024-01-29T07:38:43.118Z,102458.88
2024-01-29T07:39:49.678Z,102458.91
2024-01-29T07:40:53.790Z,102454.56
2024-01-29T07:42:00.387Z,102455.41
2024-01-29T07:43:07.720Z,102448.59
2024-01-29T07:44:14.244Z,102449.41
2024-01-29T07:45:21.082Z,102453.72
2024-01-29T07:46:27.599Z,102452.81
2024-01-29T07:47:31.850Z,102442.53
2024-01-29T07:48:38.543Z,102452.88
2024-01-29T07:49:47.816Z,102458.09
2024-01-29T07:50:54.707Z,102448.59
2024-01-29T07:51:58.647Z,102450.34
2024-01-29T07:53:06.654Z,102446.91
2024-01-29T07:54:11.194Z,102451.19
2024-01-29T07:55:18.381Z,102446.91
2024-01-29T07:56:24.596Z,102446.06
2024-01-29T07:57:34.381Z,102450.34
2024-01-29T07:58:40.571Z,102446.03
2024-01-29T07:59:47.583Z,102456.34
2024-01-29T08:00:52.043Z,102446.06
2024-01-29T08:01:59.305Z,102452.94
2024-01-29T08:03:03.515Z,102441.81
2024-01-29T08:04:10.268Z,102444.38
2024-01-29T08:05:19.223Z,102443.53
2024-01-29T08:06:25.915Z,102456.53
2024-01-29T08:07:29.969Z,102455.63
2024-01-29T08:08:37.738Z,102441.84
2024-01-29T08:09:44.151Z,102446.16
2024-01-29T08:10:51.006Z,102446.16
2024-01-29T08:11:57.157Z,102440.97
2024-01-29T08:13:04.705Z,102452.19
2024-01-29T08:14:08.589Z,102449.59
2024-01-29T08:15:15.913Z,102453.94
2024-01-29T08:16:19.812Z,102450.50
2024-01-29T08:17:24.080Z,102449.66
2024-01-29T08:18:31.042Z,102450.59
2024-01-29T08:19:35.401Z,102442.84
2024-01-29T08:20:45.615Z,102451.50
2024-01-29T08:21:49.865Z,102451.53
2024-01-29T08:22:59.065Z,102442.03
2024-01-29T08:24:07.045Z,102444.63
2024-01-29T08:25:13.443Z,102438.59
2024-01-29T08:26:19.447Z,102436.03
2024-01-29T08:27:30.428Z,102440.34
2024-01-29T08:28:34.371Z,102435.22
2024-01-29T08:29:40.894Z,102435.22
2024-01-29T08:30:52.035Z,102433.47
2024-01-29T08:32:01.299Z,102437.00
2024-01-29T08:33:05.820Z,102424.94
2024-01-29T08:34:15.065Z,102428.41
2024-01-29T08:35:19.062Z,102438.81
2024-01-29T08:36:28.148Z,102430.19
2024-01-29T08:37:32.080Z,102425.03
2024-01-29T08:38:38.751Z,102432.78
2024-01-29T08:39:42.656Z,102431.06
2024-01-29T08:40:50.337Z,102425.91
2024-01-29T08:41:54.251Z,102430.22
2024-01-29T08:43:01.096Z,102432.81
2024-01-29T08:44:06.515Z,102436.31
2024-01-29T08:45:19.169Z,102434.59
2024-01-29T08:46:23.122Z,102436.31
2024-01-29T08:47:32.307Z,102441.53
2024-01-29T08:48:36.275Z,102430.38
2024-01-29T08:49:45.188Z,102433.81
2024-01-29T08:50:48.250Z,102434.69
2024-01-29T08:51:59.728Z,102433.81
2024-01-29T08:53:04.547Z,102439.88
2024-01-29T08:54:11.177Z,102431.28
2024-01-29T08:55:15.384Z,102433.88
2024-01-29T08:56:22.055Z,102433.91
2024-01-29T08:57:29.373Z,102433.06
2024-01-29T08:58:38.650Z,102439.13
2024-01-29T08:59:43.019Z,102435.69
2024-01-29T09:00:55.921Z,102440.88
2024-01-29T09:02:00.445Z,102440.00
2024-01-29T09:03:11.487Z,102436.56
2024-01-29T09:04:15.607Z,102436.63
2024-01-29T09:05:22.199Z,102433.16
2024-01-29T09:06:26.140Z,102438.31
2024-01-29T09:07:37.977Z,102429.69
2024-01-29T09:08:43.634Z,102428.00
2024-01-29T09:09:50.388Z,102425.38
2024-01-29T09:10:54.332Z,102423.69
2024-01-29T09:12:00.820Z,102428.88
2024-01-29T09:13:05.430Z,102432.34
2024-01-29T09:14:15.304Z,102426.28
2024-01-29T09:15:20.776Z,102428.91
2024-01-29T09:16:29.692Z,102427.16
2024-01-29T09:17:33.681Z,102422.84
2024-01-29T09:18:46.528Z,102428.03
2024-01-29T09:19:53.481Z,102427.16
2024-01-29T09:21:00.158Z,102422.88
2024-01-29T09:22:04.427Z,102428.03
2024-01-29T09:23:13.601Z,102426.31
2024-01-29T09:24:20.519Z,102425.44
2024-01-29T09:25:27.176Z,102424.59
2024-01-29T09:26:31.261Z,102428.06
2024-01-29T09:27:37.845Z,102425.47
2024-01-29T09:28:43.149Z,102427.22
2024-01-29T09:29:49.672Z,102426.34
2024-01-29T09:30:56.625Z,102407.34
2024-01-29T09:32:03.308Z,102424.63
2024-01-29T09:33:15.558Z,102422.88
2024-01-29T09:34:26.682Z,102424.63
2024-01-29T09:35:30.888Z,102422.91
2024-01-29T09:36:38.697Z,102418.56
2024-01-29T09:37:43.161Z,102423.78
2024-01-29T09:38:54.925Z,102426.38
2024-01-29T09:39:58.782Z,102424.63
2024-01-29T09:41:08.070Z,102415.13
2024-01-29T09:42:19.167Z,102418.59
2024-01-29T09:43:26.029Z,102420.31
2024-01-29T09:44:33.598Z,102425.50
2024-01-29T09:45:44.830Z,102433.28
2024-01-29T09:46:51.087Z,102427.22
2024-01-29T09:47:59.966Z,102427.25
2024-01-29T09:49:06.188Z,102431.56
2024-01-29T09:50:15.171Z,102434.19
2024-01-29T09:51:20.827Z,102430.69
2024-01-29T09:52:31.431Z,102433.28
2024-01-29T09:53:38.627Z,102435.00
2024-01-29T09:54:50.882Z,102436.72
2024-01-29T09:55:54.124Z,102443.66
2024-01-29T09:57:03.832Z,102436.75
2024-01-29T09:58:08.001Z,102438.47
2024-01-29T09:59:14.636Z,102443.63
2024-01-29T10:00:20.382Z,102435.84
2024-01-29T10:01:29.767Z,102439.31
2024-01-29T10:02:35.442Z,102434.97
2024-01-29T10:03:43.911Z,102435.84
2024-01-29T10:04:47.803Z,102432.38
2024-01-29T10:05:56.277Z,102429.75
2024-01-29T10:07:03.321Z,102436.69
2024-01-29T10:08:16.111Z,102444.44
2024-01-29T10:09:20.172Z,102441.81
2024-01-29T10:10:39.988Z,102436.63
2024-01-29T10:11:47.262Z,102434.00
2024-01-29T10:13:08.048Z,102436.56
2024-01-29T10:14:11.832Z,102436.56
2024-01-29T10:15:19.463Z,102433.09
2024-01-29T10:16:23.450Z,102440.84
2024-01-29T10:17:33.753Z,102429.59
2024-01-29T10:18:38.797Z,102431.28
2024-01-29T10:19:44.937Z,102432.16
2024-01-29T10:20:51.901Z,102434.72
2024-01-29T10:21:57.650Z,102430.31
2024-01-29T10:23:07.250Z,102437.22
2024-01-29T10:24:15.431Z,102435.44
2024-01-29T10:25:24.551Z,102433.66
2024-01-29T10:26:31.116Z,102430.97
2024-01-29T10:27:40.589Z,102424.88
2024-01-29T10:28:44.477Z,102421.31
2024-01-29T10:29:51.703Z,102416.03
2024-01-29T10:30:57.107Z,102419.50
2024-01-29T10:32:05.809Z,102419.44
2024-01-29T10:33:10.520Z,102423.66
2024-01-29T10:34:18.214Z,102421.88
2024-01-29T10:35:22.426Z,102419.22
2024-01-29T10:36:33.074Z,102420.88
2024-01-29T10:37:39.090Z,102419.94
2024-01-29T10:38:50.628Z,102421.66
2024-01-29T10:39:59.845Z,102423.25
2024-01-29T10:41:11.892Z,102419.66
2024-01-29T10:42:22.217Z,102417.84
2024-01-29T10:43:40.323Z,102420.41
2024-01-29T10:44:48.158Z,102422.00
2024-01-29T10:45:59.011Z,102426.28
2024-01-29T10:47:11.355Z,102421.81
2024-01-29T10:48:24.758Z,102420.88
2024-01-29T10:49:30.273Z,102426.81
2024-01-29T10:50:38.714Z,102418.84
2024-01-29T10:51:44.128Z,102425.69
2024-01-29T10:52:51.838Z,102418.69
2024-01-29T10:53:56.719Z,102416.88
2024-01-29T10:55:06.149Z,102418.50
2024-01-29T10:56:14.725Z,102407.06
2024-01-29T10:57:28.955Z,102411.34
2024-01-29T10:58:33.559Z,102409.50
2024-01-29T10:59:38.986Z,102398.13
2024-01-29T11:00:48.409Z,102403.28
2024-01-29T11:02:01.462Z,102401.53
2024-01-29T11:03:13.642Z,102404.06
2024-01-29T11:04:18.180Z,102397.00
2024-01-29T11:05:28.851Z,102404.78
2024-01-29T11:06:45.423Z,102402.00
2024-01-29T11:07:55.774Z,102407.06
2024-01-29T11:09:17.737Z,102396.59
2024-01-29T11:10:27.156Z,102405.16
2024-01-29T11:11:34.381Z,102397.22
2024-01-29T11:12:47.400Z,102403.22
2024-01-29T11:13:52.127Z,102398.69
2024-01-29T11:15:01.360Z,102395.22
2024-01-29T11:16:10.405Z,102389.03
2024-01-29T11:17:14.135Z,102388.91
2024-01-29T11:18:20.789Z,102384.47
2024-01-29T11:19:25.665Z,102387.91
2024-01-29T11:20:35.884Z,102385.34
2024-01-29T11:21:48.908Z,102387.75
2024-01-29T11:23:01.237Z,102391.03
2024-01-29T11:24:12.811Z,102384.69
2024-01-29T11:25:20.519Z,102388.13
2024-01-29T11:26:26.993Z,102377.50
2024-01-29T11:27:35.492Z,102385.34
2024-01-29T11:28:43.059Z,102384.59
2024-01-29T11:29:51.235Z,102381.94
2024-01-29T11:30:55.379Z,102381.72
2024-01-29T11:32:07.856Z,102372.94
2024-01-29T11:33:17.873Z,102371.09
2024-01-29T11:34:34.360Z,102375.41
2024-01-29T11:35:43.433Z,102374.28
2024-01-29T11:36:57.903Z,102375.72
2024-01-29T11:38:09.313Z,102368.66
2024-01-29T11:39:18.879Z,102377.13
2024-01-29T11:40:35.784Z,102365.94
2024-01-29T11:41:52.942Z,102374.31
2024-01-29T11:42:59.284Z,102370.06
2024-01-29T11:44:08.702Z,102370.69
2024-01-29T11:45:13.252Z,102364.47
2024-01-29T11:46:21.449Z,102362.56
2024-01-29T11:47:26.038Z,102352.78
2024-01-29T11:48:33.113Z,102348.44
2024-01-29T11:49:37.257Z,102354.47
2024-01-29T11:50:42.673Z,102364.16
2024-01-29T11:51:49.616Z,102345.06
2024-01-29T11:53:01.247Z,102351.31
2024-01-29T11:54:12.508Z,102357.50
2024-01-29T11:55:20.235Z,102360.63
2024-01-29T11:56:28.363Z,102360.81
2024-01-29T11:57:33.744Z,102358.00
2024-01-29T11:58:40.428Z,102364.09
2024-01-29T11:59:50.475Z,102368.50
2024-01-29T12:01:00.375Z,102377.22
2024-01-29T12:02:04.901Z,102364.13
2024-01-29T12:03:14.365Z,102366.50
2024-01-29T12:04:18.955Z,102362.47
2024-01-29T12:05:22.972Z,102366.13
2024-01-29T12:06:33.106Z,102355.44
2024-01-29T12:07:40.100Z,102350.88
2024-01-29T12:08:50.950Z,102357.69
2024-01-29T12:10:18.713Z,102355.88
2024-01-29T12:11:26.254Z,102355.84
2024-01-29T12:12:30.435Z,102356.69
2024-01-29T12:13:39.161Z,102354.09
2024-01-29T12:14:43.292Z,102355.19
2024-01-29T12:15:55.931Z,102345.75
2024-01-29T12:17:04.141Z,102350.38
2024-01-29T12:18:20.300Z,102350.50
2024-01-29T12:19:26.604Z,102353.28
2024-01-29T12:20:33.355Z,102350.66
2024-01-29T12:21:36.516Z,102351.38
2024-01-29T12:22:43.773Z,102357.69
2024-01-29T12:23:55.244Z,102357.66
2024-01-29T12:25:15.828Z,102357.13
2024-01-29T12:26:30.026Z,102345.88
2024-01-29T12:27:36.862Z,102359.66
2024-01-29T12:28:42.889Z,102342.28
2024-01-29T12:30:35.155Z,102343.28
2024-01-29T12:32:12.734Z,102340.03
2024-01-29T12:33:19.363Z,102343.81
2024-01-29T12:34:28.212Z,102336.91
2024-01-29T12:35:33.496Z,102339.72
2024-01-29T12:36:39.973Z,102336.25
2024-01-29T12:37:44.093Z,102332.72
2024-01-29T12:38:58.953Z,102332.03
2024-01-29T12:40:03.587Z,102333.84
2024-01-29T12:41:09.979Z,102331.28
2024-01-29T12:42:15.437Z,102329.53
2024-01-29T12:43:30.692Z,102327.72
2024-01-29T12:44:34.765Z,102330.66
2024-01-29T12:45:43.126Z,102335.00
2024-01-29T12:46:59.255Z,102329.84
2024-01-29T12:48:13.809Z,102326.28
2024-01-29T12:49:18.057Z,102332.31